North Little Rock, AR (72199)

3:06 AM CDT on August 31, 2015 (GMT -0500)
Democrat-Gazette Downtown | | Change Station
CLOSE
Current Station
Personal Weather Station
Location: Little Rock, AR
Elevation: 371 ft
Nearby Weather Stations

Elev 371 ft 34.74 °N, 92.27 °W | Updated 29 seconds ago

Clear
Clear
76.5 °F
Feels Like 77 °F
N
0.4
Wind Variable Wind from ENE
Gusts 2.5 mph

Today
High -- | Low -- °F
--% Chance of Precip.
Yesterday
High -- | Low -- °F
Precip. -- in
6:41 AM 7:37 PM
Waning Gibbous, 96% visible
Pressure 29.99 in
Visibility 10.0 miles
Clouds Few 12000 ft
Heat Index 77 °F
Dew Point 72 °F
Humidity 86%
Rainfall 0.00 in
Snow Depth Not available.
UV 0.0 out of 12
Pollen 9.30 out of 12
Air Quality Not available.
Flu Activity Not available.
METAR KLIT 310653Z 13005KT 10SM FEW120 24/21 A2999 RMK AO2 SLP156 T02440206 $
Pressure 29.99 in
Visibility 10.0 miles
Clouds Few 12000 ft
Heat Index 77 °F
Dew Point 72 °F
Humidity 86%
Rainfall 0.00 in
Snow Depth Not available.
UV 0.0 out of 12
Pollen 9.30 out of 12
Air Quality Not available.
Flu Activity Not available.
METAR KLIT 310653Z 13005KT 10SM FEW120 24/21 A2999 RMK AO2 SLP156 T02440206 $

10-Day Weather Forecast

×

Almanac

Astronomy

Aug. 31, 2015 Rise Set
Actual Time
Civil Twilight
Nautical Twilight
Astronomical Twilight
Moon
Length of Visible Light
Length of Day
Tomorrow will be .
, % of the Moon is Illuminated

Today's Extremes

State Highs State Lows

Community

WunderPhotos

Upload Photos

1,851,220 photos uploaded!

WunderBlogs® & News

Nearby

Air Quality

  Air Quality AQ Index Pollutant
Not available.

Snow Depth

Station Depth Elevation

Earthquake Activity

City Distance Mag. Time & Date
Minimum magnitude displayed is 2.5.

Coastal Water Temperatures

Place Temperature

Stations

Nearby Weather Stations

Station Location Temp. Windchill Dew Point Humidity Wind Precip. Elev Updated Type